Wetterdaten: Woche 19.08.13 - 25.08.13 (KW34)
Datum Zeit Temp. Aussen +5cm Feuchte Auss Luftdruck Regen Sonnenschein Regendauer UV Solar Windben
19.08.2013 00:00 17,5 C 15,8 C 96 % 1012,4 hPa 0,0 l/m 0,00 h 0,00 h 0,0 UV-I 0 W/m 0,0 km/h (0 Bft)
19.08.2013 01:00 17,3 C 16,0 C 97 % 1012,5 hPa 0,2 l/m 0,00 h 0,23 h 0,0 UV-I 0 W/m 0,6 km/h (0 Bft)
19.08.2013 02:00 17,3 C 15,7 C 97 % 1012,5 hPa 0,6 l/m 0,00 h 0,83 h 0,0 UV-I 0 W/m 0,6 km/h (0 Bft)
19.08.2013 03:00 17,0 C 15,6 C 97 % 1012,2 hPa 0,0 l/m 0,00 h 0,00 h 0,0 UV-I 0 W/m 0,3 km/h (0 Bft)
19.08.2013 04:00 16,6 C 15,1 C 97 % 1012,4 hPa 0,2 l/m 0,00 h 0,43 h 0,0 UV-I 0 W/m 0,6 km/h (0 Bft)
19.08.2013 05:00 16,0 C 14,5 C 97 % 1012,4 hPa 0,2 l/m 0,00 h 0,17 h 0,0 UV-I 0 W/m 0,1 km/h (0 Bft)
19.08.2013 06:00 15,5 C 14,1 C 97 % 1012,7 hPa 0,0 l/m 0,00 h 0,00 h 0,0 UV-I 8 W/m 0,3 km/h (0 Bft)
19.08.2013 07:00 15,4 C 14,1 C 97 % 1012,9 hPa 0,0 l/m 0,00 h 0,00 h 0,0 UV-I 33 W/m 0,4 km/h (0 Bft)
19.08.2013 08:00 15,8 C 14,2 C 96 % 1013,3 hPa 0,0 l/m 0,40 h 0,00 h 0,0 UV-I 157 W/m 5,2 km/h (1 Bft)
19.08.2013 09:00 16,5 C 15,4 C 91 % 1014,0 hPa 0,0 l/m 0,20 h 0,00 h 0,5 UV-I 153 W/m 9,9 km/h (2 Bft)
19.08.2013 10:00 17,4 C 16,9 C 88 % 1014,4 hPa 0,0 l/m 0,13 h 0,00 h 0,7 UV-I 226 W/m 7,8 km/h (2 Bft)
19.08.2013 11:00 18,2 C 17,9 C 86 % 1015,0 hPa 0,0 l/m 0,00 h 0,00 h 0,9 UV-I 216 W/m 8,5 km/h (2 Bft)
19.08.2013 12:00 17,1 C 15,6 C 91 % 1015,5 hPa 2,0 l/m 0,00 h 0,83 h 0,9 UV-I 189 W/m 8,1 km/h (2 Bft)
19.08.2013 13:00 16,5 C 15,5 C 94 % 1016,1 hPa 1,8 l/m 0,20 h 0,70 h 1,5 UV-I 245 W/m 4,7 km/h (1 Bft)
19.08.2013 14:00 17,1 C 16,0 C 92 % 1016,6 hPa 0,0 l/m 0,03 h 0,03 h 1,2 UV-I 235 W/m 4,0 km/h (1 Bft)
19.08.2013 15:00 18,8 C 17,8 C 87 % 1017,5 hPa 0,0 l/m 0,70 h 0,00 h 2,2 UV-I 518 W/m 10,6 km/h (2 Bft)
19.08.2013 16:00 17,8 C 16,0 C 83 % 1018,4 hPa 5,6 l/m 0,33 h 0,47 h 1,6 UV-I 193 W/m 9,6 km/h (2 Bft)
19.08.2013 17:00 14,6 C 13,5 C 95 % 1019,4 hPa 1,0 l/m 0,03 h 0,53 h 0,0 UV-I 97 W/m 1,7 km/h (1 Bft)
19.08.2013 18:00 17,0 C 15,2 C 93 % 1019,9 hPa 0,0 l/m 0,27 h 0,00 h 0,0 UV-I 148 W/m 0,7 km/h (0 Bft)
19.08.2013 19:00 17,9 C 15,3 C 89 % 1020,5 hPa 0,0 l/m 0,10 h 0,00 h 0,0 UV-I 53 W/m 0,5 km/h (0 Bft)
19.08.2013 20:00 15,9 C 13,3 C 89 % 1021,7 hPa 0,0 l/m 0,00 h 0,00 h 0,0 UV-I 17 W/m 0,1 km/h (0 Bft)
19.08.2013 21:00 14,1 C 11,8 C 92 % 1022,8 hPa 0,0 l/m 0,00 h 0,00 h 0,0 UV-I 0 W/m 0,0 km/h (0 Bft)
19.08.2013 22:00 13,5 C 11,4 C 93 % 1023,6 hPa 0,0 l/m 0,00 h 0,00 h 0,0 UV-I 0 W/m 0,0 km/h (0 Bft)
19.08.2013 23:00 12,5 C 10,6 C 96 % 1024,4 hPa 0,0 l/m 0,00 h 0,00 h 0,0 UV-I 0 W/m 0,0 km/h (0 Bft)
20.08.2013 00:00 11,9 C 10,0 C 97 % 1025,1 hPa 0,2 l/m 0,00 h 0,00 h 0,0 UV-I 0 W/m 0,0 km/h (0 Bft)
20.08.2013 01:00 11,4 C 9,7 C 97 % 1025,7 hPa 0,0 l/m 0,00 h 0,00 h 0,0 UV-I 0 W/m 0,0 km/h (0 Bft)
20.08.2013 02:00 11,0 C 9,4 C 98 % 1025,9 hPa 0,0 l/m 0,00 h 0,00 h 0,0 UV-I 0 W/m 0,0 km/h (0 Bft)
20.08.2013 03:00 10,7 C 9,0 C 98 % 1026,2 hPa 0,0 l/m 0,00 h 0,00 h 0,0 UV-I 0 W/m 0,0 km/h (0 Bft)
20.08.2013 04:00 10,7 C 9,2 C 98 % 1026,5 hPa 0,0 l/m 0,00 h 0,00 h 0,0 UV-I 0 W/m 0,0 km/h (0 Bft)
20.08.2013 05:00 10,4 C 8,9 C 98 % 1026,7 hPa 0,0 l/m 0,00 h 0,00 h 0,0 UV-I 0 W/m 0,0 km/h (0 Bft)
20.08.2013 06:00 10,2 C 8,9 C 98 % 1027,1 hPa 0,0 l/m 0,00 h 0,00 h 0,0 UV-I 14 W/m 0,0 km/h (0 Bft)
20.08.2013 07:00 10,9 C 9,7 C 99 % 1027,5 hPa 0,0 l/m 0,00 h 0,00 h 0,0 UV-I 38 W/m 0,0 km/h (0 Bft)
20.08.2013 08:00 12,4 C 11,4 C 99 % 1028,2 hPa 0,0 l/m 0,60 h 0,00 h 0,0 UV-I 168 W/m 0,1 km/h (0 Bft)
20.08.2013 09:00 14,7 C 14,0 C 97 % 1028,5 hPa 0,0 l/m 0,87 h 0,00 h 0,8 UV-I 358 W/m 0,5 km/h (0 Bft)
20.08.2013 10:00 17,0 C 18,2 C 86 % 1028,5 hPa 0,0 l/m 0,93 h 0,00 h 1,7 UV-I 530 W/m 0,9 km/h (0 Bft)
20.08.2013 11:00 19,0 C 19,0 C 72 % 1028,7 hPa 0,0 l/m 0,97 h 0,00 h 2,9 UV-I 648 W/m 0,0 km/h (0 Bft)
20.08.2013 12:00 19,9 C 21,0 C 66 % 1028,8 hPa 0,0 l/m 0,77 h 0,00 h 3,2 UV-I 636 W/m 3,3 km/h (1 Bft)
20.08.2013 13:00 19,7 C 19,8 C 65 % 1028,8 hPa 0,0 l/m 0,40 h 0,00 h 1,8 UV-I 334 W/m 5,9 km/h (2 Bft)
20.08.2013 14:00 19,8 C 20,1 C 63 % 1028,7 hPa 0,0 l/m 0,33 h 0,00 h 2,1 UV-I 362 W/m 2,5 km/h (1 Bft)
20.08.2013 15:00 20,2 C 20,2 C 62 % 1028,4 hPa 0,0 l/m 0,13 h 0,00 h 1,6 UV-I 284 W/m 3,0 km/h (1 Bft)
20.08.2013 16:00 20,1 C 19,8 C 61 % 1028,1 hPa 0,0 l/m 0,23 h 0,00 h 1,0 UV-I 272 W/m 2,2 km/h (1 Bft)
20.08.2013 17:00 20,2 C 19,7 C 59 % 1028,0 hPa 0,0 l/m 0,07 h 0,00 h 0,7 UV-I 183 W/m 1,9 km/h (1 Bft)
20.08.2013 18:00 20,3 C 19,1 C 60 % 1027,8 hPa 0,0 l/m 0,17 h 0,00 h 0,0 UV-I 142 W/m 0,2 km/h (0 Bft)
20.08.2013 19:00 19,2 C 17,2 C 65 % 1027,8 hPa 0,0 l/m 0,00 h 0,00 h 0,0 UV-I 53 W/m 0,3 km/h (0 Bft)
20.08.2013 20:00 17,0 C 14,5 C 76 % 1027,7 hPa 0,0 l/m 0,00 h 0,00 h 0,0 UV-I 15 W/m 0,0 km/h (0 Bft)
20.08.2013 21:00 14,9 C 12,7 C 85 % 1027,9 hPa 0,0 l/m 0,00 h 0,00 h 0,0 UV-I 0 W/m 0,0 km/h (0 Bft)
20.08.2013 22:00 14,0 C 12,3 C 89 % 1028,1 hPa 0,0 l/m 0,00 h 0,00 h 0,0 UV-I 0 W/m 0,0 km/h (0 Bft)
20.08.2013 23:00 14,2 C 12,5 C 91 % 1027,9 hPa 0,0 l/m 0,00 h 0,00 h 0,0 UV-I 0 W/m 0,0 km/h (0 Bft)
21.08.2013 00:00 13,6 C 11,8 C 91 % 1027,9 hPa 0,0 l/m 0,00 h 0,00 h 0,0 UV-I 0 W/m 0,0 km/h (0 Bft)
21.08.2013 01:00 12,5 C 10,7 C 92 % 1027,8 hPa 0,0 l/m 0,00 h 0,00 h 0,0 UV-I 0 W/m 0,0 km/h (0 Bft)
21.08.2013 02:00 11,8 C 10,1 C 93 % 1027,3 hPa 0,0 l/m 0,00 h 0,00 h 0,0 UV-I 0 W/m 0,0 km/h (0 Bft)
21.08.2013 03:00 11,3 C 9,8 C 94 % 1027,0 hPa 0,0 l/m 0,00 h 0,00 h 0,0 UV-I 0 W/m 0,0 km/h (0 Bft)
21.08.2013 04:00 11,0 C 9,7 C 95 % 1026,9 hPa 0,0 l/m 0,00 h 0,00 h 0,0 UV-I 0 W/m 0,0 km/h (0 Bft)
21.08.2013 05:00 11,0 C 9,5 C 95 % 1026,6 hPa 0,0 l/m 0,00 h 0,00 h 0,0 UV-I 0 W/m 0,1 km/h (0 Bft)
21.08.2013 06:00 10,7 C 9,4 C 96 % 1026,4 hPa 0,0 l/m 0,00 h 0,00 h 0,0 UV-I 12 W/m 0,2 km/h (0 Bft)
21.08.2013 07:00 11,1 C 10,1 C 96 % 1026,4 hPa 0,0 l/m 0,00 h 0,00 h 0,0 UV-I 42 W/m 0,2 km/h (0 Bft)
21.08.2013 08:00 12,6 C 11,8 C 94 % 1026,5 hPa 0,0 l/m 0,60 h 0,00 h 0,0 UV-I 164 W/m 6,2 km/h (2 Bft)
21.08.2013 09:00 15,5 C 15,1 C 85 % 1026,5 hPa 0,0 l/m 0,97 h 0,00 h 0,8 UV-I 355 W/m 3,6 km/h (1 Bft)
21.08.2013 10:00 18,5 C 18,4 C 76 % 1026,5 hPa 0,0 l/m 0,97 h 0,00 h 1,5 UV-I 434 W/m 4,5 km/h (1 Bft)
21.08.2013 11:00 20,7 C 21,0 C 66 % 1026,2 hPa 0,0 l/m 0,97 h 0,00 h 2,6 UV-I 590 W/m 11,4 km/h (2 Bft)
21.08.2013 12:00 21,5 C 21,8 C 60 % 1025,7 hPa 0,0 l/m 0,97 h 0,00 h 2,8 UV-I 530 W/m 7,0 km/h (2 Bft)
21.08.2013 13:00 23,0 C 23,0 C 55 % 1025,3 hPa 0,0 l/m 0,97 h 0,00 h 2,7 UV-I 689 W/m 7,2 km/h (2 Bft)
21.08.2013 14:00 23,7 C 25,0 C 52 % 1024,8 hPa 0,0 l/m 0,97 h 0,00 h 3,9 UV-I 746 W/m 4,4 km/h (1 Bft)
21.08.2013 15:00 24,0 C 23,4 C 51 % 1024,2 hPa 0,0 l/m 0,97 h 0,00 h 2,9 UV-I 608 W/m 4,9 km/h (1 Bft)
21.08.2013 16:00 24,1 C 23,2 C 51 % 1023,6 hPa 0,0 l/m 0,93 h 0,00 h 1,8 UV-I 457 W/m 3,9 km/h (1 Bft)
21.08.2013 17:00 23,6 C 22,3 C 50 % 1023,1 hPa 0,0 l/m 0,97 h 0,00 h 1,1 UV-I 408 W/m 5,9 km/h (2 Bft)
21.08.2013 18:00 23,2 C 21,4 C 54 % 1022,8 hPa 0,0 l/m 0,20 h 0,00 h 0,6 UV-I 132 W/m 4,2 km/h (1 Bft)
21.08.2013 19:00 22,4 C 20,2 C 56 % 1022,6 hPa 0,0 l/m 0,00 h 0,00 h 0,0 UV-I 46 W/m 0,4 km/h (0 Bft)
21.08.2013 20:00 19,8 C 16,9 C 70 % 1022,4 hPa 0,0 l/m 0,00 h 0,00 h 0,0 UV-I 14 W/m 0,0 km/h (0 Bft)
21.08.2013 21:00 17,4 C 14,8 C 79 % 1022,4 hPa 0,0 l/m 0,00 h 0,00 h 0,0 UV-I 0 W/m 0,0 km/h (0 Bft)
21.08.2013 22:00 16,0 C 13,7 C 85 % 1022,4 hPa 0,0 l/m 0,00 h 0,00 h 0,0 UV-I 0 W/m 0,0 km/h (0 Bft)
21.08.2013 23:00 14,8 C 12,8 C 88 % 1022,2 hPa 0,0 l/m 0,00 h 0,00 h 0,0 UV-I 0 W/m 0,0 km/h (0 Bft)
22.08.2013 00:00 14,0 C 12,1 C 90 % 1022,0 hPa 0,0 l/m 0,00 h 0,00 h 0,0 UV-I 0 W/m 0,0 km/h (0 Bft)
22.08.2013 01:00 13,3 C 11,5 C 92 % 1021,6 hPa 0,0 l/m 0,00 h 0,00 h 0,0 UV-I 0 W/m 0,0 km/h (0 Bft)
22.08.2013 02:00 12,5 C 10,8 C 94 % 1021,4 hPa 0,0 l/m 0,00 h 0,00 h 0,0 UV-I 0 W/m 0,0 km/h (0 Bft)
22.08.2013 03:00 12,0 C 10,4 C 94 % 1021,1 hPa 0,0 l/m 0,00 h 0,00 h 0,0 UV-I 0 W/m 0,0 km/h (0 Bft)
22.08.2013 04:00 11,4 C 10,0 C 95 % 1020,9 hPa 0,0 l/m 0,00 h 0,00 h 0,0 UV-I 0 W/m 0,0 km/h (0 Bft)
22.08.2013 05:00 11,1 C 9,4 C 96 % 1020,7 hPa 0,0 l/m 0,00 h 0,00 h 0,0 UV-I 0 W/m 0,0 km/h (0 Bft)
22.08.2013 06:00 10,9 C 9,4 C 96 % 1020,6 hPa 0,0 l/m 0,00 h 0,00 h 0,0 UV-I 11 W/m 0,0 km/h (0 Bft)
22.08.2013 07:00 11,8 C 10,7 C 96 % 1020,5 hPa 0,0 l/m 0,00 h 0,00 h 0,0 UV-I 47 W/m 0,4 km/h (0 Bft)
22.08.2013 08:00 13,8 C 12,7 C 89 % 1020,5 hPa 0,0 l/m 0,40 h 0,00 h 0,0 UV-I 138 W/m 1,0 km/h (0 Bft)
22.08.2013 09:00 16,7 C 16,1 C 81 % 1020,6 hPa 0,0 l/m 0,97 h 0,00 h 0,7 UV-I 333 W/m 1,6 km/h (1 Bft)
22.08.2013 10:00 19,8 C 19,3 C 73 % 1020,7 hPa 0,0 l/m 0,97 h 0,00 h 1,5 UV-I 445 W/m 0,4 km/h (0 Bft)
22.08.2013 11:00 22,4 C 22,1 C 63 % 1020,6 hPa 0,0 l/m 0,97 h 0,00 h 2,4 UV-I 559 W/m 2,5 km/h (1 Bft)
22.08.2013 12:00 24,1 C 24,7 C 55 % 1020,2 hPa 0,0 l/m 0,97 h 0,00 h 3,2 UV-I 658 W/m 2,2 km/h (1 Bft)
22.08.2013 13:00 24,7 C 24,4 C 53 % 1019,9 hPa 0,0 l/m 0,97 h 0,00 h 2,6 UV-I 663 W/m 6,9 km/h (2 Bft)
22.08.2013 14:00 25,5 C 24,6 C 50 % 1019,6 hPa 0,0 l/m 0,97 h 0,00 h 3,2 UV-I 634 W/m 7,2 km/h (2 Bft)
22.08.2013 15:00 25,5 C 24,6 C 50 % 1019,2 hPa 0,0 l/m 0,97 h 0,00 h 2,4 UV-I 541 W/m 8,8 km/h (2 Bft)
22.08.2013 16:00 25,7 C 24,9 C 50 % 1019,0 hPa 0,0 l/m 0,97 h 0,00 h 1,5 UV-I 400 W/m 6,5 km/h (2 Bft)
22.08.2013 17:00 25,2 C 24,2 C 51 % 1018,6 hPa 0,0 l/m 0,50 h 0,00 h 0,8 UV-I 233 W/m 6,7 km/h (2 Bft)
22.08.2013 18:00 24,4 C 23,1 C 55 % 1018,3 hPa 0,0 l/m 0,00 h 0,00 h 0,0 UV-I 95 W/m 3,8 km/h (1 Bft)
22.08.2013 19:00 23,3 C 21,6 C 60 % 1018,3 hPa 0,0 l/m 0,00 h 0,27 h 0,0 UV-I 33 W/m 3,8 km/h (1 Bft)
22.08.2013 20:00 22,0 C 20,4 C 66 % 1018,4 hPa 0,0 l/m 0,00 h 0,00 h 0,0 UV-I 14 W/m 5,2 km/h (1 Bft)
22.08.2013 21:00 20,3 C 19,0 C 75 % 1018,5 hPa 0,0 l/m 0,00 h 0,00 h 0,0 UV-I 0 W/m 3,2 km/h (1 Bft)
22.08.2013 22:00 20,2 C 18,9 C 74 % 1018,5 hPa 0,0 l/m 0,00 h 0,00 h 0,0 UV-I 0 W/m 1,4 km/h (1 Bft)
22.08.2013 23:00 19,9 C 18,4 C 75 % 1018,3 hPa 0,0 l/m 0,00 h 0,00 h 0,0 UV-I 0 W/m 0,1 km/h (0 Bft)
23.08.2013 00:00 19,2 C 17,8 C 78 % 1018,5 hPa 0,0 l/m 0,00 h 0,00 h 0,0 UV-I 0 W/m 0,4 km/h (0 Bft)
23.08.2013 01:00 18,8 C 17,2 C 78 % 1018,2 hPa 0,0 l/m 0,00 h 0,00 h 0,0 UV-I 0 W/m 0,0 km/h (0 Bft)
23.08.2013 02:00 17,9 C 16,2 C 83 % 1018,0 hPa 0,0 l/m 0,00 h 0,00 h 0,0 UV-I 0 W/m 0,0 km/h (0 Bft)
23.08.2013 03:00 16,9 C 15,1 C 87 % 1017,9 hPa 0,0 l/m 0,00 h 0,00 h 0,0 UV-I 0 W/m 0,0 km/h (0 Bft)
23.08.2013 04:00 15,7 C 13,7 C 90 % 1017,6 hPa 0,0 l/m 0,00 h 0,00 h 0,0 UV-I 0 W/m 0,0 km/h (0 Bft)
23.08.2013 05:00 14,7 C 13,0 C 93 % 1017,3 hPa 0,0 l/m 0,00 h 0,00 h 0,0 UV-I 0 W/m 0,0 km/h (0 Bft)
23.08.2013 06:00 14,1 C 12,4 C 94 % 1017,2 hPa 0,0 l/m 0,00 h 0,00 h 0,0 UV-I 8 W/m 0,0 km/h (0 Bft)
23.08.2013 07:00 14,2 C 12,8 C 95 % 1017,3 hPa 0,0 l/m 0,00 h 0,00 h 0,0 UV-I 36 W/m 0,0 km/h (0 Bft)
23.08.2013 08:00 17,1 C 16,1 C 88 % 1017,2 hPa 0,0 l/m 0,60 h 0,00 h 0,0 UV-I 186 W/m 0,4 km/h (0 Bft)
23.08.2013 09:00 20,2 C 19,5 C 76 % 1017,0 hPa 0,0 l/m 0,97 h 0,00 h 0,7 UV-I 336 W/m 3,4 km/h (1 Bft)
23.08.2013 10:00 22,4 C 21,7 C 67 % 1016,9 hPa 0,0 l/m 0,97 h 0,00 h 1,5 UV-I 480 W/m 3,2 km/h (1 Bft)
23.08.2013 11:00 24,3 C 24,1 C 61 % 1016,9 hPa 0,0 l/m 0,97 h 0,00 h 2,4 UV-I 589 W/m 5,6 km/h (1 Bft)
23.08.2013 12:00 25,6 C 26,7 C 56 % 1016,5 hPa 0,0 l/m 0,97 h 0,00 h 2,9 UV-I 658 W/m 6,0 km/h (2 Bft)
23.08.2013 13:00 26,6 C 26,1 C 52 % 1015,8 hPa 0,0 l/m 0,97 h 0,00 h 2,3 UV-I 676 W/m 6,1 km/h (2 Bft)
23.08.2013 14:00 27,8 C 26,6 C 48 % 1015,4 hPa 0,0 l/m 0,97 h 0,00 h 3,3 UV-I 686 W/m 8,3 km/h (2 Bft)
23.08.2013 15:00 27,7 C 26,5 C 48 % 1015,0 hPa 0,0 l/m 0,73 h 0,00 h 2,3 UV-I 501 W/m 6,7 km/h (2 Bft)
23.08.2013 16:00 27,5 C 26,0 C 49 % 1014,6 hPa 0,0 l/m 0,63 h 0,00 h 1,4 UV-I 350 W/m 4,8 km/h (1 Bft)
23.08.2013 17:00 27,5 C 25,7 C 49 % 1014,2 hPa 0,0 l/m 0,77 h 0,00 h 0,9 UV-I 291 W/m 3,2 km/h (1 Bft)
23.08.2013 18:00 27,1 C 24,6 C 48 % 1013,8 hPa 0,0 l/m 0,17 h 0,00 h 0,5 UV-I 112 W/m 3,5 km/h (1 Bft)
23.08.2013 19:00 26,0 C 23,3 C 53 % 1013,7 hPa 0,0 l/m 0,00 h 0,00 h 0,0 UV-I 48 W/m 2,2 km/h (1 Bft)
23.08.2013 20:00 24,0 C 20,8 C 57 % 1013,8 hPa 0,0 l/m 0,00 h 0,00 h 0,0 UV-I 13 W/m 1,1 km/h (0 Bft)
23.08.2013 21:00 22,0 C 18,9 C 63 % 1014,1 hPa 0,0 l/m 0,00 h 0,00 h 0,0 UV-I 0 W/m 0,3 km/h (0 Bft)
23.08.2013 22:00 20,7 C 18,1 C 68 % 1014,3 hPa 0,0 l/m 0,00 h 0,00 h 0,0 UV-I 0 W/m 1,4 km/h (1 Bft)
23.08.2013 23:00 20,1 C 17,8 C 68 % 1014,3 hPa 0,0 l/m 0,00 h 0,00 h 0,0 UV-I 0 W/m 2,8 km/h (1 Bft)
24.08.2013 00:00 19,6 C 17,2 C 68 % 1014,3 hPa 0,0 l/m 0,00 h 0,00 h 0,0 UV-I 0 W/m 6,2 km/h (2 Bft)
24.08.2013 01:00 19,2 C 17,2 C 68 % 1014,1 hPa 0,0 l/m 0,00 h 0,00 h 0,0 UV-I 0 W/m 10,0 km/h (2 Bft)
24.08.2013 02:00 18,3 C 16,4 C 71 % 1013,7 hPa 0,0 l/m 0,00 h 0,00 h 0,0 UV-I 0 W/m 6,4 km/h (2 Bft)
24.08.2013 03:00 17,4 C 15,6 C 74 % 1013,2 hPa 0,0 l/m 0,00 h 0,00 h 0,0 UV-I 0 W/m 2,1 km/h (1 Bft)
24.08.2013 04:00 16,3 C 14,6 C 79 % 1012,9 hPa 0,0 l/m 0,00 h 0,00 h 0,0 UV-I 0 W/m 0,7 km/h (0 Bft)
24.08.2013 05:00 16,2 C 14,7 C 81 % 1012,3 hPa 0,0 l/m 0,00 h 0,00 h 0,0 UV-I 0 W/m 4,2 km/h (1 Bft)
24.08.2013 06:00 16,2 C 14,7 C 82 % 1012,2 hPa 0,0 l/m 0,00 h 0,00 h 0,0 UV-I 9 W/m 3,5 km/h (1 Bft)
24.08.2013 07:00 16,7 C 15,5 C 80 % 1011,8 hPa 0,0 l/m 0,00 h 0,00 h 0,0 UV-I 53 W/m 6,2 km/h (2 Bft)
24.08.2013 08:00 18,0 C 17,1 C 77 % 1011,4 hPa 0,0 l/m 0,23 h 0,00 h 0,0 UV-I 139 W/m 9,9 km/h (2 Bft)
24.08.2013 09:00 19,4 C 18,6 C 72 % 1011,0 hPa 0,0 l/m 0,47 h 0,00 h 0,6 UV-I 205 W/m 13,6 km/h (3 Bft)
24.08.2013 10:00 22,0 C 21,3 C 65 % 1011,0 hPa 0,0 l/m 0,97 h 0,00 h 1,6 UV-I 508 W/m 20,0 km/h (4 Bft)
24.08.2013 11:00 23,0 C 23,0 C 62 % 1010,8 hPa 0,0 l/m 0,47 h 0,00 h 1,6 UV-I 380 W/m 17,7 km/h (3 Bft)
24.08.2013 12:00 22,6 C 22,7 C 64 % 1010,8 hPa 0,0 l/m 0,03 h 0,00 h 1,6 UV-I 316 W/m 12,8 km/h (3 Bft)
24.08.2013 13:00 22,3 C 22,3 C 67 % 1010,6 hPa 0,0 l/m 0,00 h 0,00 h 1,2 UV-I 248 W/m 4,6 km/h (1 Bft)
24.08.2013 14:00 21,6 C 21,6 C 73 % 1010,7 hPa 0,0 l/m 0,00 h 0,03 h 1,3 UV-I 208 W/m 5,2 km/h (1 Bft)
24.08.2013 15:00 18,1 C 16,5 C 89 % 1010,9 hPa 1,2 l/m 0,00 h 0,97 h 0,5 UV-I 93 W/m 3,3 km/h (1 Bft)
24.08.2013 16:00 18,2 C 17,0 C 93 % 1010,7 hPa 0,0 l/m 0,00 h 0,07 h 0,6 UV-I 154 W/m 0,1 km/h (0 Bft)
24.08.2013 17:00 18,7 C 17,1 C 92 % 1010,4 hPa 0,0 l/m 0,00 h 0,10 h 0,0 UV-I 100 W/m 1,8 km/h (1 Bft)
24.08.2013 18:00 18,6 C 17,1 C 93 % 1010,5 hPa 0,2 l/m 0,00 h 0,23 h 0,0 UV-I 49 W/m 0,1 km/h (0 Bft)
24.08.2013 19:00 18,2 C 16,7 C 95 % 1010,4 hPa 0,6 l/m 0,00 h 0,95 h 0,0 UV-I 19 W/m 0,0 km/h (0 Bft)
24.08.2013 20:00 17,7 C 16,1 C 97 % 1010,3 hPa 0,6 l/m 0,00 h 0,80 h 0,0 UV-I 7 W/m 0,0 km/h (0 Bft)
24.08.2013 21:00 17,5 C 16,0 C 97 % 1010,3 hPa 0,0 l/m 0,00 h 0,00 h 0,0 UV-I 0 W/m 0,0 km/h (0 Bft)
24.08.2013 22:00 17,0 C 15,4 C 98 % 1010,4 hPa 0,0 l/m 0,00 h 0,00 h 0,0 UV-I 0 W/m 0,0 km/h (0 Bft)
24.08.2013 23:00 17,2 C 16,1 C 98 % 1010,2 hPa 0,0 l/m 0,00 h 0,03 h 0,0 UV-I 0 W/m 0,2 km/h (0 Bft)
25.08.2013 00:00 17,1 C 15,9 C 99 % 1010,3 hPa 0,0 l/m 0,00 h 0,00 h 0,0 UV-I 0 W/m 0,4 km/h (0 Bft)
25.08.2013 01:00 16,7 C 15,5 C 99 % 1010,2 hPa 0,0 l/m 0,00 h 0,00 h 0,0 UV-I 0 W/m 0,3 km/h (0 Bft)
25.08.2013 02:00 16,3 C 14,9 C 99 % 1010,0 hPa 0,0 l/m 0,00 h 0,00 h 0,0 UV-I 0 W/m 0,0 km/h (0 Bft)
25.08.2013 03:00 16,2 C 15,0 C 99 % 1010,2 hPa 0,0 l/m 0,00 h 0,03 h 0,0 UV-I 0 W/m 0,1 km/h (0 Bft)
25.08.2013 04:00 16,2 C 15,0 C 99 % 1010,0 hPa 0,0 l/m 0,00 h 0,03 h 0,0 UV-I 0 W/m 0,0 km/h (0 Bft)
25.08.2013 05:00 16,2 C 15,0 C 99 % 1009,9 hPa 0,0 l/m 0,00 h 0,00 h 0,0 UV-I 0 W/m 0,0 km/h (0 Bft)
25.08.2013 06:00 16,0 C 14,8 C 99 % 1010,0 hPa 0,0 l/m 0,00 h 0,00 h 0,0 UV-I 5 W/m 0,0 km/h (0 Bft)
25.08.2013 07:00 15,9 C 15,0 C 99 % 1010,3 hPa 0,0 l/m 0,00 h 0,00 h 0,0 UV-I 12 W/m 0,0 km/h (0 Bft)
25.08.2013 08:00 16,0 C 15,0 C 99 % 1010,5 hPa 0,0 l/m 0,00 h 0,00 h 0,0 UV-I 36 W/m 0,0 km/h (0 Bft)
25.08.2013 09:00 16,3 C 15,4 C 99 % 1010,8 hPa 0,0 l/m 0,00 h 0,00 h 0,0 UV-I 81 W/m 0,3 km/h (0 Bft)
25.08.2013 10:00 17,2 C 16,7 C 96 % 1011,1 hPa 0,0 l/m 0,00 h 0,00 h 0,0 UV-I 106 W/m 0,1 km/h (0 Bft)
25.08.2013 11:00 17,4 C 16,7 C 95 % 1011,3 hPa 0,0 l/m 0,00 h 0,00 h 0,0 UV-I 82 W/m 0,3 km/h (0 Bft)
25.08.2013 12:00 17,3 C 16,4 C 95 % 1011,5 hPa 0,0 l/m 0,00 h 0,17 h 0,5 UV-I 109 W/m 1,4 km/h (1 Bft)
25.08.2013 13:00 17,7 C 17,4 C 93 % 1011,9 hPa 0,0 l/m 0,00 h 0,00 h 0,9 UV-I 164 W/m 2,5 km/h (1 Bft)
25.08.2013 14:00 17,5 C 16,4 C 93 % 1012,2 hPa 0,2 l/m 0,00 h 0,23 h 0,0 UV-I 69 W/m 1,8 km/h (1 Bft)
25.08.2013 15:00 17,3 C 16,2 C 96 % 1012,4 hPa 0,0 l/m 0,00 h 0,07 h 0,8 UV-I 103 W/m 0,5 km/h (0 Bft)
25.08.2013 16:00 18,4 C 17,8 C 94 % 1012,4 hPa 0,0 l/m 0,10 h 0,00 h 0,8 UV-I 243 W/m 2,5 km/h (1 Bft)
25.08.2013 17:00 18,8 C 18,5 C 92 % 1012,6 hPa 0,0 l/m 0,50 h 0,00 h 0,5 UV-I 206 W/m 2,0 km/h (1 Bft)
25.08.2013 18:00 19,2 C 18,1 C 91 % 1012,7 hPa 0,4 l/m 0,17 h 0,47 h 0,0 UV-I 94 W/m 1,2 km/h (1 Bft)
25.08.2013 19:00 17,9 C 16,2 C 95 % 1012,9 hPa 0,2 l/m 0,00 h 0,47 h 0,0 UV-I 16 W/m 0,4 km/h (0 Bft)
25.08.2013 20:00 17,3 C 15,7 C 97 % 1013,0 hPa 0,2 l/m 0,00 h 0,10 h 0,0 UV-I 10 W/m 0,0 km/h (0 Bft)
25.08.2013 21:00 17,3 C 16,0 C 98 % 1013,5 hPa 0,8 l/m 0,00 h 0,80 h 0,0 UV-I 0 W/m 0,9 km/h (0 Bft)
25.08.2013 22:00 16,7 C 15,2 C 98 % 1013,4 hPa 0,0 l/m 0,00 h 0,03 h 0,0 UV-I 0 W/m 0,5 km/h (0 Bft)
25.08.2013 23:00 15,8 C 14,1 C 98 % 1013,6 hPa 0,0 l/m 0,00 h 0,00 h 0,0 UV-I 0 W/m 0,0 km/h (0 Bft)
Min-Datum _ 20.08.13 20.08.13 23.08.13 25.08.13 - - - - - 19.08.13
_ Min-Zeit 06:02 03:06 15:24 06:10 - - - - - 00:00
Minimum _ 10,1 C 8,9 C 46 % 1009,8 hPa - - - - - 0,0 km/h (0 Bft)
Max-Datum _ 23.08.13 23.08.13 19.08.13 20.08.13 19.08.13 19.08.13 19.08.13 21.08.13 20.08.13 24.08.13
_ Max-Zeit 14:44 12:40 05:20 12:08 16:38 08:24 01:36 14:20 12:56 10:26
Maximum _ 28,3 C 28,9 C 99 % 1028,9 hPa 5,6 l/m 0,03 h 0,03 h 4,3 UV-I 928 W/m 41,2 km/h
S-SO (6 Bft)
Durchschnitt _ 17,9 C 16,6 C 82 % 1018,3 hPa #16,2 l/m #37:36 h #10:07 h 1,6 UV-I 241 W/m 2,5 km/h (1 Bft)
© 2013 W. Hausmann